Time;durP1;ratioP1;P1;durP2;ratioP2;P2;SDS_P1;SDS_P2;PMS_P1;PMS_P2;Temp;Humidity;BMP_temperature;BMP_pressure;BME280_temperature;BME280_humidity;BME280_pressure;Samples;Min_cycle;Max_cycle;Signal;HPM_P1;HPM_P2
2024/04/05 00:00:45;;;;;;;19.57;3.60;;;15.00;99.90;;;;;;7298876;19;20187;-77
2024/04/05 00:03:11;;;;;;;21.67;3.50;;;15.00;99.90;;;;;;7282077;19;20662;-77
2024/04/05 00:05:37;;;;;;;17.60;3.07;;;15.10;99.90;;;;;;7282013;19;20185;-77
2024/04/05 00:08:03;;;;;;;22.93;3.00;;;15.10;99.90;;;;;;7282170;19;20526;-76
2024/04/05 00:10:29;;;;;;;20.53;3.53;;;15.20;99.90;;;;;;7280125;19;20209;-77
2024/04/05 00:12:56;;;;;;;17.33;2.80;;;15.10;99.90;;;;;;7281963;19;20192;-77
2024/04/05 00:15:22;;;;;;;20.83;3.37;;;15.20;99.90;;;;;;7283175;19;20573;-77
2024/04/05 00:17:47;;;;;;;20.70;2.77;;;15.20;99.90;;;;;;7305940;19;20189;-77
2024/04/05 00:20:13;;;;;;;15.00;3.23;;;15.20;99.90;;;;;;7281358;19;20641;-76
2024/04/05 00:22:39;;;;;;;21.43;3.40;;;15.20;99.90;;;;;;7282006;19;20659;-76
2024/04/05 00:25:06;;;;;;;22.40;3.20;;;15.20;99.90;;;;;;7280451;19;20685;-76
2024/04/05 00:27:32;;;;;;;17.67;3.13;;;15.20;99.90;;;;;;7282556;19;20201;-76
2024/04/05 00:29:58;;;;;;;20.23;2.87;;;15.20;99.90;;;;;;7279167;19;20192;-77
2024/04/05 00:32:23;;;;;;;26.30;3.70;;;15.00;99.90;;;;;;7280684;19;20189;-77
2024/04/05 00:34:49;;;;;;;17.17;2.80;;;15.10;99.90;;;;;;7298324;19;20225;-77
2024/04/05 00:37:15;;;;;;;19.10;2.90;;;15.10;99.90;;;;;;7296215;19;20221;-77
2024/04/05 00:39:41;;;;;;;21.43;3.40;;;14.90;99.90;;;;;;7280242;19;20643;-77
2024/04/05 00:42:06;;;;;;;18.03;3.10;;;14.80;99.90;;;;;;7281893;19;20641;-77
2024/04/05 00:44:32;;;;;;;17.47;3.30;;;14.80;99.90;;;;;;7282658;19;20213;-78
2024/04/05 00:46:58;;;;;;;16.67;3.40;;;14.90;99.90;;;;;;7281304;19;20297;-77
2024/04/05 00:49:26;;;;;;;14.70;2.33;;;14.80;99.90;;;;;;7280059;19;20238;-77
2024/04/05 00:51:52;;;;;;;17.20;2.87;;;14.80;99.90;;;;;;7278341;19;20189;-77
2024/04/05 00:54:20;;;;;;;20.60;3.33;;;14.80;99.90;;;;;;7304313;19;20196;-77
2024/04/05 00:56:47;;;;;;;20.07;3.37;;;14.80;99.90;;;;;;7281684;19;20715;-77
2024/04/05 00:59:14;;;;;;;18.73;3.23;;;14.70;99.90;;;;;;7280789;19;20553;-77
2024/04/05 01:01:41;;;;;;;23.00;3.30;;;14.70;99.90;;;;;;7280824;19;20288;-77
2024/04/05 01:04:07;;;;;;;15.83;2.93;;;14.70;99.90;;;;;;7281986;19;20189;-77
2024/04/05 01:06:33;;;;;;;12.37;2.73;;;14.70;99.90;;;;;;7281826;19;20670;-77
2024/04/05 01:08:59;;;;;;;23.73;3.40;;;14.70;99.90;;;;;;7279244;19;20205;-77
2024/04/05 01:11:25;;;;;;;17.00;3.13;;;14.70;99.90;;;;;;7281477;19;20200;-77
2024/04/05 01:13:51;;;;;;;19.73;2.80;;;14.80;99.90;;;;;;7281815;19;20181;-77
2024/04/05 01:16:17;;;;;;;21.63;3.37;;;14.70;99.90;;;;;;7303458;19;20661;-77
2024/04/05 01:18:43;;;;;;;25.17;3.60;;;14.80;99.90;;;;;;7280520;19;20194;-77
2024/04/05 01:21:09;;;;;;;16.23;3.00;;;14.80;99.90;;;;;;7281969;19;20194;-77
2024/04/05 01:23:42;;;;;;;21.37;3.30;;;14.90;99.90;;;;;;7281995;19;20193;-77
2024/04/05 01:26:09;;;;;;;22.00;3.30;;;15.00;99.90;;;;;;7279653;19;20187;-77
2024/04/05 01:28:35;;;;;;;17.63;3.00;;;15.00;99.90;;;;;;7280843;19;20185;-77
2024/04/05 01:31:01;;;;;;;14.00;3.00;;;15.10;99.90;;;;;;7278172;19;20599;-77
2024/04/05 01:33:27;;;;;;;19.17;2.97;;;15.00;99.90;;;;;;7279938;19;20189;-77
2024/04/05 01:35:53;;;;;;;21.27;3.17;;;15.10;99.90;;;;;;7279577;19;20253;-77
2024/04/05 01:38:19;;;;;;;16.67;2.53;;;15.10;99.90;;;;;;7299525;19;20203;-77
2024/04/05 01:40:45;;;;;;;18.70;2.73;;;15.20;99.90;;;;;;7280487;19;20184;-77
2024/04/05 01:43:11;;;;;;;16.57;3.20;;;15.30;99.90;;;;;;7279954;19;20954;-77
2024/04/05 01:45:36;;;;;;;16.40;3.10;;;15.30;99.90;;;;;;7277669;19;20213;-77
2024/04/05 01:48:02;;;;;;;18.37;2.93;;;15.30;99.90;;;;;;7278909;19;20189;-77
2024/04/05 01:50:28;;;;;;;18.63;3.33;;;15.20;99.90;;;;;;7280238;19;20186;-77
2024/04/05 01:52:54;;;;;;;22.60;3.37;;;15.20;99.90;;;;;;7280070;19;20191;-77
2024/04/05 01:55:19;;;;;;;24.10;3.13;;;15.30;99.90;;;;;;7299241;19;20211;-77
2024/04/05 01:57:45;;;;;;;17.20;3.10;;;15.20;99.90;;;;;;7299363;19;20657;-76
2024/04/05 02:00:11;;;;;;;18.90;3.30;;;15.20;99.90;;;;;;7285778;19;20201;-77
2024/04/05 02:02:45;;;;;;;15.63;3.23;;;15.10;99.90;;;;;;7286894;19;20573;-76
2024/04/05 02:05:11;;;;;;;16.67;3.07;;;15.00;99.90;;;;;;7284885;19;20958;-77
2024/04/05 02:07:36;;;;;;;21.33;3.40;;;15.00;99.90;;;;;;7287157;19;20612;-77
2024/04/05 02:10:02;;;;;;;18.27;3.00;;;15.00;99.90;;;;;;7286472;19;20201;-76
2024/04/05 02:12:29;;;;;;;19.37;3.40;;;15.10;99.90;;;;;;7284347;19;20188;-76
2024/04/05 02:14:55;;;;;;;17.67;3.60;;;15.10;99.90;;;;;;7283239;19;20212;-77
2024/04/05 02:17:21;;;;;;;20.13;3.40;;;15.10;99.90;;;;;;7286310;19;20210;-77
2024/04/05 02:19:47;;;;;;;19.57;3.50;;;15.10;99.90;;;;;;7307859;19;20724;-77
2024/04/05 02:22:12;;;;;;;19.07;3.50;;;15.20;99.90;;;;;;7284451;19;20206;-77
2024/04/05 02:24:38;;;;;;;22.57;3.00;;;15.20;99.90;;;;;;7284656;19;20207;-76
2024/04/05 02:27:04;;;;;;;13.47;3.10;;;15.20;99.90;;;;;;7286015;19;20190;-76
2024/04/05 02:29:31;;;;;;;16.87;3.17;;;15.00;99.90;;;;;;7284879;19;20556;-78
2024/04/05 02:31:57;;;;;;;17.30;3.63;;;15.00;99.90;;;;;;7282316;19;20200;-77
2024/04/05 02:34:22;;;;;;;16.10;3.20;;;14.90;99.90;;;;;;7284746;19;20189;-77
2024/04/05 02:36:52;;;;;;;19.47;3.43;;;15.00;99.90;;;;;;7307739;19;20186;-77
2024/04/05 02:39:18;;;;;;;17.33;3.03;;;14.80;99.90;;;;;;7286533;19;20666;-77
2024/04/05 02:41:45;;;;;;;18.33;3.30;;;14.70;99.90;;;;;;7282983;19;20193;-77
2024/04/05 02:44:11;;;;;;;21.60;3.80;;;14.70;99.90;;;;;;7285201;19;20310;-77
2024/04/05 02:46:37;;;;;;;22.90;3.53;;;14.70;99.90;;;;;;7285460;19;20559;-77
2024/04/05 02:49:03;;;;;;;21.93;3.53;;;14.60;99.90;;;;;;7283272;19;20197;-77
2024/04/05 02:51:28;;;;;;;17.40;3.60;;;14.70;99.90;;;;;;7283661;19;20223;-77
2024/04/05 02:53:54;;;;;;;19.40;3.57;;;14.70;99.90;;;;;;7286216;19;20189;-77
2024/04/05 02:56:20;;;;;;;17.77;3.30;;;14.70;99.90;;;;;;7297484;19;20186;-77
2024/04/05 02:58:46;;;;;;;17.07;3.27;;;14.70;99.90;;;;;;7303060;19;20636;-77
2024/04/05 03:01:11;;;;;;;15.03;3.20;;;14.70;99.90;;;;;;7283923;19;20232;-77
2024/04/05 03:03:37;;;;;;;18.67;3.20;;;14.70;99.90;;;;;;7285485;19;20545;-77
2024/04/05 03:06:03;;;;;;;14.77;2.70;;;14.70;99.90;;;;;;7285550;19;20196;-77
2024/04/05 03:08:29;;;;;;;17.50;3.43;;;14.70;99.90;;;;;;7283730;19;20207;-77
2024/04/05 03:10:55;;;;;;;13.70;2.70;;;14.70;99.90;;;;;;7283687;19;20181;-77
2024/04/05 03:13:21;;;;;;;21.37;3.40;;;14.60;99.90;;;;;;7291084;19;20869;-77
2024/04/05 03:15:47;;;;;;;19.87;3.57;;;14.60;99.90;;;;;;7308136;19;20672;-77
2024/04/05 03:18:14;;;;;;;17.07;3.27;;;14.50;99.90;;;;;;7283240;19;20220;-78
2024/04/05 03:20:39;;;;;;;17.40;3.30;;;14.50;99.90;;;;;;7284217;19;20333;-77
2024/04/05 03:23:06;;;;;;;20.13;3.10;;;14.50;99.90;;;;;;7285048;19;20200;-77
2024/04/05 03:25:32;;;;;;;18.03;3.03;;;14.50;99.90;;;;;;7283960;19;20575;-77
2024/04/05 03:27:58;;;;;;;18.97;3.20;;;14.50;99.90;;;;;;7282216;19;20208;-77
2024/04/05 03:30:24;;;;;;;14.87;2.90;;;14.50;99.90;;;;;;7283087;19;20197;-77
2024/04/05 03:32:49;;;;;;;13.83;2.70;;;14.40;99.90;;;;;;7301319;19;20195;-77
2024/04/05 03:35:15;;;;;;;13.17;2.60;;;14.30;99.90;;;;;;7297291;19;20188;-77
2024/04/05 03:37:42;;;;;;;15.13;2.93;;;14.40;99.90;;;;;;7282673;19;20192;-77
2024/04/05 03:40:08;;;;;;;17.93;2.83;;;14.40;99.90;;;;;;7283229;19;20547;-77
2024/04/05 03:42:33;;;;;;;15.20;2.80;;;14.40;99.90;;;;;;7284774;19;20658;-77
2024/04/05 03:44:59;;;;;;;17.73;2.87;;;14.40;99.90;;;;;;7283465;19;20193;-78
2024/04/05 03:47:25;;;;;;;16.87;2.50;;;14.50;99.90;;;;;;7281560;19;20216;-77
2024/04/05 03:49:51;;;;;;;14.90;2.90;;;14.50;99.90;;;;;;7286129;19;20341;-77
2024/04/05 03:52:17;;;;;;;17.07;3.10;;;14.40;99.90;;;;;;7306008;19;20208;-77
2024/04/05 03:54:42;;;;;;;11.17;2.40;;;14.30;99.90;;;;;;7282953;19;20200;-77
2024/04/05 03:57:09;;;;;;;19.03;2.80;;;14.20;99.90;;;;;;7282671;19;20540;-77
2024/04/05 03:59:34;;;;;;;15.33;2.97;;;14.20;99.90;;;;;;7283620;19;20187;-77
2024/04/05 04:02:00;;;;;;;15.03;2.83;;;14.20;99.90;;;;;;7284662;19;20211;-77
2024/04/05 04:04:27;;;;;;;13.33;2.60;;;14.30;99.90;;;;;;7281855;19;20205;-77
2024/04/05 04:06:54;;;;;;;14.83;2.77;;;14.30;99.90;;;;;;7282651;19;20193;-77
2024/04/05 04:09:20;;;;;;;9.27;2.23;;;14.20;99.90;;;;;;7301321;19;20192;-77
2024/04/05 04:11:46;;;;;;;18.77;2.70;;;14.30;99.90;;;;;;7296781;19;20217;-77
2024/04/05 04:14:15;;;;;;;13.13;2.63;;;14.30;99.90;;;;;;7280953;19;20264;-77
2024/04/05 04:16:40;;;;;;;13.33;2.70;;;14.40;99.90;;;;;;7281431;19;20187;-77
2024/04/05 04:19:07;;;;;;;12.50;2.50;;;14.50;99.90;;;;;;7281758;19;20289;-77
2024/04/05 04:21:34;;;;;;;18.13;2.93;;;14.50;99.90;;;;;;7281378;19;20523;-77
2024/04/05 04:24:00;;;;;;;19.10;3.03;;;14.40;99.90;;;;;;7280199;19;20187;-77
2024/04/05 04:26:26;;;;;;;14.30;2.80;;;14.60;99.90;;;;;;7281472;19;20185;-77
2024/04/05 04:28:52;;;;;;;15.83;2.67;;;14.60;99.90;;;;;;7281274;19;20198;-77
2024/04/05 04:31:23;;;;;;;13.83;2.37;;;14.70;99.90;;;;;;7302923;19;20188;-77
2024/04/05 04:33:53;;;;;;;13.73;2.57;;;14.70;99.90;;;;;;7279979;19;20189;-77
2024/04/05 04:36:20;;;;;;;13.17;2.27;;;14.70;99.90;;;;;;7282208;19;20280;-77
2024/04/05 04:38:46;;;;;;;12.50;2.50;;;14.60;99.90;;;;;;7282277;19;20710;-77
2024/04/05 04:41:12;;;;;;;17.30;2.90;;;14.60;99.90;;;;;;7279681;19;20193;-77
2024/04/05 04:43:42;;;;;;;16.33;3.00;;;14.50;99.90;;;;;;7280562;19;20305;-77
2024/04/05 04:46:10;;;;;;;15.67;2.40;;;14.40;99.90;;;;;;7281706;19;20192;-77
2024/04/05 04:48:37;;;;;;;11.20;2.43;;;14.40;99.90;;;;;;7280991;19;20652;-77
2024/04/05 04:51:03;;;;;;;17.03;2.80;;;14.30;99.90;;;;;;7280649;19;20254;-77
2024/04/05 04:53:29;;;;;;;14.17;2.30;;;14.40;99.90;;;;;;7280417;19;20727;-78
2024/04/05 04:55:55;;;;;;;13.90;2.47;;;14.40;99.90;;;;;;7279911;19;20191;-77
2024/04/05 04:58:23;;;;;;;14.07;2.27;;;14.40;99.90;;;;;;7286384;19;20188;-77
2024/04/05 05:00:49;;;;;;;13.07;2.00;;;14.40;99.90;;;;;;7302514;19;20184;-77
2024/04/05 05:03:15;;;;;;;14.33;2.37;;;14.40;99.90;;;;;;7283287;19;20660;-77
2024/04/05 05:05:42;;;;;;;12.37;2.33;;;14.40;99.90;;;;;;7282753;19;20333;-77
2024/04/05 05:08:13;;;;;;;9.73;2.00;;;14.40;99.90;;;;;;7280767;19;20196;-77
2024/04/05 05:10:39;;;;;;;14.33;2.97;;;14.30;99.90;;;;;;7279288;19;20218;-77
2024/04/05 05:13:06;;;;;;;12.37;2.23;;;14.40;99.90;;;;;;7280723;19;20660;-77
2024/04/05 05:15:32;;;;;;;12.80;2.80;;;14.30;99.90;;;;;;7282275;19;20209;-75
2024/04/05 05:17:58;;;;;;;11.93;2.10;;;14.40;99.90;;;;;;7280934;19;20216;-77
2024/04/05 05:20:26;;;;;;;11.37;2.03;;;14.40;99.90;;;;;;7277669;19;20611;-76
2024/04/05 05:22:56;;;;;;;11.30;2.40;;;14.40;99.90;;;;;;7280912;19;20200;-77
2024/04/05 05:25:22;;;;;;;10.73;2.33;;;14.50;99.90;;;;;;7283778;19;20192;-77
2024/04/05 05:27:48;;;;;;;11.77;2.00;;;14.50;99.90;;;;;;7301347;19;20632;-77
2024/04/05 05:30:17;;;;;;;11.87;2.20;;;14.60;99.90;;;;;;7281779;19;20193;-77
2024/04/05 05:32:43;;;;;;;11.13;2.03;;;14.60;99.90;;;;;;7287264;19;20209;-77
2024/04/05 05:35:08;;;;;;;13.77;2.40;;;14.70;99.90;;;;;;7286865;19;20191;-77
2024/04/05 05:37:35;;;;;;;12.03;2.30;;;14.70;99.90;;;;;;7284374;19;20765;-77
2024/04/05 05:40:01;;;;;;;11.67;2.27;;;14.80;99.90;;;;;;7285192;19;20193;-77
2024/04/05 05:42:27;;;;;;;13.73;2.63;;;14.80;99.90;;;;;;7284082;19;20215;-77
2024/04/05 05:44:53;;;;;;;13.50;2.60;;;14.80;99.90;;;;;;7284829;19;20533;-77
2024/04/05 05:47:20;;;;;;;15.10;2.90;;;14.80;99.90;;;;;;7303581;19;20693;-77
2024/04/05 05:49:48;;;;;;;17.13;3.30;;;14.70;99.90;;;;;;7284755;19;20186;-77
2024/04/05 05:52:14;;;;;;;14.07;3.07;;;14.70;99.90;;;;;;7285626;19;20285;-77
2024/04/05 05:54:39;;;;;;;11.67;3.00;;;14.70;99.90;;;;;;7284675;19;20248;-77
2024/04/05 05:57:05;;;;;;;10.77;3.03;;;14.70;99.90;;;;;;7283081;19;20195;-77
2024/04/05 05:59:31;;;;;;;10.50;2.70;;;14.70;99.90;;;;;;7282158;19;20199;-77
2024/04/05 06:01:57;;;;;;;12.90;2.93;;;14.70;99.90;;;;;;7283539;19;20189;-77
2024/04/05 06:04:24;;;;;;;10.57;2.67;;;14.70;99.90;;;;;;7281997;19;20221;-80
2024/04/05 06:06:51;;;;;;;9.77;2.63;;;14.70;99.90;;;;;;7301029;19;20241;-77
2024/04/05 06:09:17;;;;;;;15.93;2.40;;;14.70;99.90;;;;;;7302917;19;20600;-77
2024/04/05 06:11:45;;;;;;;9.80;2.37;;;14.80;99.90;;;;;;7285594;19;20194;-77
2024/04/05 06:14:11;;;;;;;7.83;2.13;;;14.70;99.90;;;;;;7283566;19;20202;-77
2024/04/05 06:16:37;;;;;;;9.43;2.03;;;14.80;99.90;;;;;;7282754;19;20229;-77
2024/04/05 06:19:03;;;;;;;11.20;2.17;;;14.80;99.90;;;;;;7282615;19;20263;-77
2024/04/05 06:21:30;;;;;;;10.10;2.27;;;14.80;99.90;;;;;;7282850;19;20177;-76
2024/04/05 06:23:59;;;;;;;10.83;2.50;;;14.90;99.90;;;;;;7285342;19;20189;-76
2024/04/05 06:26:28;;;;;;;8.23;1.93;;;14.90;99.90;;;;;;7282988;19;20194;-77
2024/04/05 06:28:54;;;;;;;9.20;2.43;;;15.00;99.90;;;;;;7285105;19;20690;-77
2024/04/05 06:31:20;;;;;;;9.40;1.90;;;15.10;99.90;;;;;;7307198;19;20668;-77
2024/04/05 06:33:46;;;;;;;9.20;2.10;;;15.00;99.90;;;;;;7284532;19;20221;-77
2024/04/05 06:36:11;;;;;;;10.23;2.63;;;15.00;99.90;;;;;;7285403;19;20194;-77
2024/04/05 06:38:37;;;;;;;13.27;3.23;;;15.00;99.90;;;;;;7285317;19;20533;-77
2024/04/05 06:41:04;;;;;;;9.67;3.47;;;15.10;99.90;;;;;;7283576;19;20191;-77
2024/04/05 06:43:31;;;;;;;12.53;4.23;;;15.10;99.90;;;;;;7282016;19;20193;-77
2024/04/05 06:46:03;;;;;;;13.37;4.90;;;15.20;99.90;;;;;;7284646;19;20182;-77
2024/04/05 06:48:31;;;;;;;11.80;4.03;;;15.30;99.90;;;;;;7285192;19;20352;-76
2024/04/05 06:50:57;;;;;;;11.50;3.63;;;15.30;99.90;;;;;;7285041;19;20185;-77
2024/04/05 06:53:30;;;;;;;11.73;3.43;;;15.30;99.90;;;;;;7288551;19;20190;-77
2024/04/05 06:55:56;;;;;;;8.07;2.47;;;15.40;99.90;;;;;;7284378;19;20721;-77
2024/04/05 06:58:24;;;;;;;8.90;2.00;;;15.40;99.90;;;;;;7302734;19;20177;-77
2024/04/05 07:00:50;;;;;;;10.27;1.63;;;15.50;99.90;;;;;;7307140;19;20183;-77
2024/04/05 07:03:18;;;;;;;7.17;1.97;;;15.60;99.90;;;;;;7284181;19;20240;-77
2024/04/05 07:05:43;;;;;;;7.97;1.80;;;15.60;99.90;;;;;;7284583;19;20195;-78
2024/04/05 07:08:09;;;;;;;8.10;1.33;;;15.80;99.90;;;;;;7284726;19;20563;-77
2024/04/05 07:10:39;;;;;;;7.37;2.90;;;15.90;99.90;;;;;;7284225;19;20209;-77
2024/04/05 07:13:05;;;;;;;7.53;1.70;;;16.00;99.90;;;;;;7282424;19;20195;-78
2024/04/05 07:15:30;;;;;;;8.03;1.87;;;16.10;99.90;;;;;;7284751;19;21004;-77
2024/04/05 07:17:56;;;;;;;11.50;1.83;;;16.00;99.90;;;;;;7284783;19;20188;-78
2024/04/05 07:20:26;;;;;;;8.30;2.10;;;16.20;99.90;;;;;;7298381;19;20194;-78
2024/04/05 07:22:55;;;;;;;7.20;1.40;;;16.30;99.90;;;;;;7302102;19;20651;-77
2024/04/05 07:25:22;;;;;;;8.00;2.00;;;16.50;99.90;;;;;;7307196;19;20190;-77
2024/04/05 07:27:53;;;;;;;5.93;1.20;;;16.50;99.90;;;;;;7282959;19;20209;-77
2024/04/05 07:30:23;;;;;;;9.73;2.73;;;16.50;99.90;;;;;;7282061;19;20307;-77
2024/04/05 07:32:50;;;;;;;5.07;1.33;;;16.50;99.90;;;;;;7283371;19;20195;-77
2024/04/05 07:35:17;;;;;;;7.77;1.70;;;16.60;99.90;;;;;;7282154;19;20230;-78
2024/04/05 07:37:49;;;;;;;8.00;2.07;;;16.60;99.90;;;;;;7281616;19;20188;-77
2024/04/05 07:40:26;;;;;;;6.67;1.33;;;16.60;99.90;;;;;;7278973;19;20209;-77
2024/04/05 07:42:53;;;;;;;7.47;1.43;;;16.70;99.90;;;;;;7281481;19;20193;-78
2024/04/05 07:45:27;;;;;;;6.73;1.53;;;16.80;99.90;;;;;;7305037;19;20208;-77
2024/04/05 07:47:53;;;;;;;6.20;1.43;;;16.90;99.90;;;;;;7264492;19;20198;-77
2024/04/05 07:50:21;;;;;;;11.23;2.57;;;16.90;99.90;;;;;;7305275;19;20194;-77
2024/04/05 07:52:54;;;;;;;6.63;1.43;;;16.80;99.90;;;;;;7280549;19;20657;-77
2024/04/05 07:55:20;;;;;;;7.80;1.47;;;16.90;99.90;;;;;;7281981;19;20271;-77
2024/04/05 07:57:46;;;;;;;3.47;0.93;;;17.10;99.90;;;;;;7282012;19;20279;-77
2024/04/05 08:00:15;;;;;;;8.77;1.43;;;17.20;99.90;;;;;;7280777;19;20240;-78
2024/04/05 08:02:48;;;;;;;6.57;1.47;;;17.10;99.90;;;;;;7283528;19;20205;-77
2024/04/05 08:05:15;;;;;;;6.53;1.77;;;17.10;99.90;;;;;;7282622;19;20196;-77
2024/04/05 08:07:42;;;;;;;8.90;1.40;;;17.20;99.90;;;;;;7280406;19;20288;-77
2024/04/05 08:10:09;;;;;;;5.23;1.07;;;17.20;99.90;;;;;;7282197;19;20203;-77
2024/04/05 08:12:36;;;;;;;9.30;1.10;;;17.00;99.90;;;;;;7282759;19;20196;-77
2024/04/05 08:15:03;;;;;;;10.37;1.97;;;16.80;99.90;;;;;;7282796;19;20196;-77
2024/04/05 08:17:29;;;;;;;5.03;1.20;;;16.70;99.90;;;;;;7281712;19;20195;-77
2024/04/05 08:19:54;;;;;;;6.23;1.10;;;16.80;99.90;;;;;;7281550;19;20190;-78
2024/04/05 08:22:20;;;;;;;8.07;1.00;;;16.70;99.90;;;;;;7304307;19;20200;-78
2024/04/05 08:24:48;;;;;;;4.30;1.13;;;16.80;99.90;;;;;;7282803;19;20191;-77
2024/04/05 08:27:14;;;;;;;6.37;1.33;;;16.80;99.90;;;;;;7280552;19;20197;-77
2024/04/05 08:29:40;;;;;;;6.33;1.47;;;16.90;99.90;;;;;;7281691;19;20653;-77
2024/04/05 08:32:07;;;;;;;6.17;1.33;;;17.00;99.90;;;;;;7282311;19;20193;-77
2024/04/05 08:34:33;;;;;;;8.17;1.50;;;17.10;99.90;;;;;;7281421;19;20196;-77
2024/04/05 08:36:59;;;;;;;6.87;1.50;;;17.00;99.90;;;;;;7282102;19;20212;-77
2024/04/05 08:39:26;;;;;;;6.67;1.20;;;17.10;99.90;;;;;;7282274;19;20191;-78
2024/04/05 08:42:02;;;;;;;7.17;1.30;;;17.10;99.90;;;;;;7297904;19;20195;-77
2024/04/05 08:44:31;;;;;;;7.03;1.50;;;17.10;99.90;;;;;;7282440;19;20193;-77
2024/04/05 08:46:57;;;;;;;7.70;1.30;;;17.20;99.90;;;;;;7280333;19;20192;-78
2024/04/05 08:49:26;;;;;;;7.40;1.60;;;17.40;99.90;;;;;;7291656;19;20705;-77
2024/04/05 08:51:52;;;;;;;5.27;1.30;;;17.50;99.90;;;;;;7298406;19;20219;-77
2024/04/05 08:54:20;;;;;;;4.50;1.17;;;17.50;99.90;;;;;;7296288;19;20184;-78
2024/04/05 08:56:50;;;;;;;5.67;1.23;;;17.40;99.90;;;;;;7281244;19;20207;-78
2024/04/05 08:59:17;;;;;;;7.27;1.80;;;17.40;99.90;;;;;;7280896;19;20193;-77
2024/04/05 09:01:50;;;;;;;5.17;1.13;;;17.50;99.90;;;;;;7279875;19;20626;-77
2024/04/05 09:04:17;;;;;;;5.97;1.27;;;17.50;99.90;;;;;;7284898;19;20202;-77
2024/04/05 09:06:44;;;;;;;5.63;1.33;;;17.60;99.90;;;;;;7289812;19;20188;-78
2024/04/05 09:09:10;;;;;;;6.77;1.37;;;17.70;99.90;;;;;;7288088;19;20196;-77
2024/04/05 09:11:37;;;;;;;6.33;1.53;;;17.90;99.90;;;;;;7287492;19;20221;-78
2024/04/05 09:14:03;;;;;;;6.17;1.33;;;18.10;99.90;;;;;;7286972;19;20194;-78
2024/04/05 09:16:33;;;;;;;5.70;1.20;;;18.30;99.90;;;;;;7288903;19;20188;-78
2024/04/05 09:19:08;;;;;;;6.37;1.40;;;18.60;99.90;;;;;;7289025;19;20206;-77
2024/04/05 09:21:34;;;;;;;4.50;1.90;;;18.80;99.90;;;;;;7286418;19;20192;-78
2024/04/05 09:24:07;;;;;;;9.13;1.60;;;18.80;99.90;;;;;;7287430;19;20181;-78
2024/04/05 09:26:34;;;;;;;7.30;1.30;;;18.90;99.90;;;;;;7288135;19;20194;-78
2024/04/05 09:29:12;;;;;;;9.30;1.57;;;19.00;99.90;;;;;;7288567;19;20187;-77
2024/04/05 09:31:45;;;;;;;7.40;1.50;;;19.10;99.90;;;;;;7283788;19;20615;-78
2024/04/05 09:34:16;;;;;;;5.63;1.10;;;19.10;99.90;;;;;;7287471;19;20189;-77
2024/04/05 09:36:42;;;;;;;4.20;1.13;;;18.80;99.90;;;;;;7289959;19;20261;-78
2024/04/05 09:39:16;;;;;;;9.27;1.60;;;18.60;99.90;;;;;;7287387;19;20185;-78
2024/04/05 09:41:44;;;;;;;4.57;1.30;;;18.40;99.90;;;;;;7286325;19;20368;-77
2024/04/05 09:44:11;;;;;;;6.97;1.20;;;18.40;99.90;;;;;;7287722;19;20670;-78
2024/04/05 09:46:38;;;;;;;8.17;1.60;;;18.20;99.90;;;;;;7287712;19;20264;-78
2024/04/05 09:49:05;;;;;;;6.30;1.73;;;18.20;99.90;;;;;;7288008;19;20188;-79
2024/04/05 09:51:47;;;;;;;6.87;1.70;;;18.30;99.90;;;;;;7287138;19;21025;-76
2024/04/05 09:54:13;;;;;;;6.67;1.60;;;18.40;99.90;;;;;;7288274;19;20194;-78
2024/04/05 09:56:40;;;;;;;6.20;2.00;;;18.20;99.90;;;;;;7289771;19;20185;-77
2024/04/05 09:59:30;;;;;;;7.13;1.20;;;18.00;99.90;;;;;;7285843;19;20644;-78
2024/04/05 10:01:57;;;;;;;7.03;1.40;;;18.00;99.90;;;;;;7265548;19;20521;-78
2024/04/05 10:04:24;;;;;;;7.17;1.20;;;17.90;99.90;;;;;;7302051;19;20193;-79
2024/04/05 10:06:50;;;;;;;5.87;1.60;;;17.90;99.90;;;;;;7309459;19;20185;-78
2024/04/05 10:09:25;;;;;;;5.60;1.50;;;17.80;99.90;;;;;;7284969;19;20187;-78
2024/04/05 10:11:52;;;;;;;9.00;1.80;;;17.80;99.90;;;;;;7287764;19;20993;-78
2024/04/05 10:14:25;;;;;;;6.73;1.70;;;17.90;99.90;;;;;;7286339;19;20181;-78
2024/04/05 10:16:52;;;;;;;8.37;1.40;;;18.10;99.90;;;;;;7285734;19;20192;-78
2024/04/05 10:19:28;;;;;;;5.13;1.60;;;18.30;99.90;;;;;;7284859;19;20185;-78
2024/04/05 10:22:08;;;;;;;5.53;1.47;;;18.30;99.90;;;;;;7265620;19;20183;-78
2024/04/05 10:24:35;;;;;;;4.53;1.47;;;18.30;99.90;;;;;;7285453;19;20189;-78
2024/04/05 10:27:02;;;;;;;7.10;1.87;;;18.60;99.90;;;;;;7284937;19;20181;-78
2024/04/05 10:29:28;;;;;;;7.53;1.93;;;18.70;99.90;;;;;;7285307;19;20196;-78
2024/04/05 10:32:01;;;;;;;5.83;2.30;;;18.90;99.90;;;;;;7285570;19;20190;-78
2024/04/05 10:34:28;;;;;;;8.57;2.13;;;18.90;99.90;;;;;;7287008;19;20220;-78
2024/04/05 10:36:55;;;;;;;6.10;2.83;;;19.00;99.90;;;;;;7290620;19;20185;-78
2024/04/05 10:39:21;;;;;;;8.53;2.20;;;18.80;99.90;;;;;;7306621;19;20185;-79
2024/04/05 10:41:49;;;;;;;4.83;1.97;;;18.80;99.90;;;;;;7286449;19;20212;-78
2024/04/05 10:44:16;;;;;;;13.77;5.40;;;18.70;99.90;;;;;;7286087;19;20189;-78
2024/04/05 10:46:44;;;;;;;5.33;1.67;;;18.50;99.90;;;;;;7284723;19;20184;-77
2024/04/05 10:49:11;;;;;;;6.80;1.83;;;18.40;99.90;;;;;;7287909;19;20680;-78
2024/04/05 10:51:37;;;;;;;10.53;4.13;;;18.30;99.90;;;;;;7285294;19;20187;-78
2024/04/05 10:54:07;;;;;;;5.80;2.27;;;18.30;99.90;;;;;;7284828;19;20243;-78
2024/04/05 10:56:39;;;;;;;6.57;1.67;;;17.90;99.90;;;;;;7284264;19;20650;-78
2024/04/05 10:59:18;;;;;;;4.80;1.70;;;17.80;99.90;;;;;;7284889;19;20184;-78
2024/04/05 11:01:45;;;;;;;6.13;1.63;;;17.50;99.90;;;;;;7286414;19;20174;-78
2024/04/05 11:04:11;;;;;;;6.60;2.07;;;17.40;99.90;;;;;;7284100;19;20666;-78
2024/04/05 11:06:40;;;;;;;7.67;1.80;;;17.10;99.90;;;;;;7284185;19;20183;-78
2024/04/05 11:09:07;;;;;;;5.57;1.97;;;17.00;99.90;;;;;;7284843;19;20222;-79
2024/04/05 11:11:33;;;;;;;12.80;3.77;;;17.00;99.90;;;;;;7284816;19;20650;-78
2024/04/05 11:14:05;;;;;;;8.80;3.83;;;17.10;99.90;;;;;;7283325;19;20179;-78
2024/04/05 11:16:35;;;;;;;8.70;1.90;;;17.00;99.90;;;;;;7285935;19;20181;-78
2024/04/05 11:19:02;;;;;;;6.83;1.60;;;17.00;99.90;;;;;;7284782;19;20592;-78
2024/04/05 11:21:28;;;;;;;4.70;1.40;;;17.00;99.90;;;;;;7283373;19;20186;-78
2024/04/05 11:23:56;;;;;;;6.43;1.67;;;17.10;99.90;;;;;;7286437;19;20194;-78
2024/04/05 11:26:31;;;;;;;4.80;1.40;;;17.20;99.90;;;;;;7306371;19;20584;-78
2024/04/05 11:28:58;;;;;;;4.97;1.20;;;17.40;99.90;;;;;;7264044;19;20800;-78
2024/04/05 11:31:26;;;;;;;6.43;1.60;;;17.60;99.90;;;;;;7291171;19;20639;-78
2024/04/05 11:33:56;;;;;;;4.80;1.20;;;17.70;99.90;;;;;;7305195;19;20250;-78
2024/04/05 11:36:21;;;;;;;5.07;1.10;;;17.70;99.90;;;;;;7286333;19;20231;-78
2024/04/05 11:38:48;;;;;;;4.73;1.40;;;17.60;99.90;;;;;;7284730;19;20192;-78
2024/04/05 11:41:14;;;;;;;6.33;1.53;;;17.40;99.90;;;;;;7283002;19;20193;-78
2024/04/05 11:43:40;;;;;;;5.63;1.90;;;17.50;99.90;;;;;;7284234;19;20189;-78
2024/04/05 11:46:05;;;;;;;5.53;1.50;;;17.50;99.90;;;;;;7284615;19;20192;-78
2024/04/05 11:48:31;;;;;;;7.20;1.20;;;17.40;99.90;;;;;;7284894;19;20192;-78
2024/04/05 11:50:57;;;;;;;5.23;1.70;;;17.40;99.90;;;;;;7282225;19;20204;-78
2024/04/05 11:53:24;;;;;;;5.10;1.43;;;17.50;99.90;;;;;;7299261;19;20252;-78
2024/04/05 11:55:50;;;;;;;6.37;1.70;;;17.40;99.90;;;;;;7306667;19;20186;-78
2024/04/05 11:58:17;;;;;;;4.83;1.53;;;17.40;99.90;;;;;;7282786;19;20188;-78
2024/04/05 12:00:48;;;;;;;6.03;1.67;;;17.40;99.90;;;;;;7281448;19;20201;-78
2024/04/05 12:03:14;;;;;;;7.97;1.63;;;17.60;99.90;;;;;;7284482;19;20581;-78
2024/04/05 12:05:43;;;;;;;6.13;1.60;;;17.70;99.90;;;;;;7284532;19;20642;-78
2024/04/05 12:08:09;;;;;;;4.53;1.40;;;18.10;99.90;;;;;;7282818;19;20188;-78
2024/04/05 12:10:35;;;;;;;4.20;1.30;;;18.60;99.90;;;;;;7282169;19;20221;-78
2024/04/05 12:13:01;;;;;;;6.03;1.50;;;18.70;99.90;;;;;;7283973;19;20210;-78
2024/04/05 12:15:27;;;;;;;6.10;1.47;;;18.90;99.90;;;;;;7283343;19;20714;-78
2024/04/05 12:17:53;;;;;;;5.10;1.30;;;19.30;99.90;;;;;;7300432;19;20185;-78
2024/04/05 12:20:19;;;;;;;5.53;1.37;;;19.30;99.90;;;;;;7293951;19;20220;-78
2024/04/05 12:22:46;;;;;;;5.53;1.50;;;19.80;99.90;;;;;;7284278;19;20656;-78
2024/04/05 12:25:12;;;;;;;4.87;1.50;;;20.00;99.90;;;;;;7282889;19;20531;-79
2024/04/05 12:27:37;;;;;;;5.10;1.20;;;20.70;99.90;;;;;;7282590;19;20190;-78
2024/04/05 12:30:04;;;;;;;3.97;1.10;;;21.50;99.90;;;;;;7281061;19;20197;-78
2024/04/05 12:32:30;;;;;;;3.80;1.53;;;21.90;99.90;;;;;;7281855;19;20516;-78
2024/04/05 12:34:57;;;;;;;4.63;1.13;;;22.70;99.90;;;;;;7282005;19;20223;-78
2024/04/05 12:37:25;;;;;;;5.90;0.90;;;23.70;99.90;;;;;;7297216;19;20192;-76
2024/04/05 12:39:51;;;;;;;5.30;1.60;;;23.90;99.90;;;;;;7301671;19;20188;-76